ラロトンガ の空港の天気 - METARとTAF

ラロトンガ国際空港 ( NCRG / RAR ) - クック諸島 アバルア (ラロトンガ島)
飛行場実況気象(Metar)
観測時間12/09 19:00 CKT (12/10 05:00 UTC)
風向・風速南西 4m/s
視程8000m
天気現象弱いしゅう雨
少しの雲 雲底高度 180m
全天の8割程度の雲 雲底高度 370m
全天を覆う雲 雲底高度 2740m
気温24℃
湿度100%
気圧1003hPa
METARNCRG 100500Z 22007KT 8000 -SHRA FEW006 BKN012 OVC090 24/24 Q1003
過去の天気等 Google飛行場航空写真 Wunderground天気予報

過去48時間のMETAR

飛行場予報(TAF)
発表時間: 12/09 13:53 CKT (12/09 23:53 UTC)
予報対象時間: 9日14時 CKT ~ 10日14時 CKT
風向・風速西北西 9m/s
視程10km以上
天気現象弱いしゅう雨
少しの雲 雲底高度 150m
全天の8割程度の雲 雲底高度 430m
全天を覆う雲 雲底高度 3050m
9日14時 CKT ~ 10日2時 CKT に一時的に
風向・風速北西 10m/s 瞬間風速 18m/s
視程3000m
天気現象雷雨
全天の8割程度の雲 雲底高度 430m
少しの積乱雲 雲底高度 490m
10日2時 CKT ~ 10日14時 CKT に 確率 40% で一時的に
視程3000m
天気現象雷雨
全天の8割程度の雲 雲底高度 460m
少しの積乱雲 雲底高度 550m
TAF AMD NCRG 092353Z 1000/1024 30018KT 9999 -SHRA FEW005 BKN014 OVC100
TEMPO 1000/1012 32020G35KT 3000 TSRA BKN014 FEW016CB
PROB40 TEMPO 1012/1024 3000 TSRA BKN015 FEW018CB